Terminal Aerodrome Forecast
Issued by NWS Midland/Odessa, TX

Current Version | Previous Version | Text Only | Print | Product List | Glossary On
Versions: 1 2 3 4 5 6 7 8 9 10 11 12 13 14 15 16 17 18 19 20 21 22 23 24 25
000
FTUS44 KMAF 200000 CCA
TAFMAF
TAF COR
KMAF 200003Z 2000/2024 14014KT P6SM FEW050 SCT110
     FM200100 13010KT P6SM SCT110
     FM200700 13009KT P6SM BKN012
     FM201500 16008KT P6SM BKN030=

USA.gov is the U.S. government's official web portal to all federal, state and local government web resources and services.